sensor_id;sensor_type;location;lat;lon;timestamp;pressure;altitude;pressure_sealevel;temperature;humidity
64200;BME280;50516;52.272;5.136;2023-02-21T00:00:14;102004.38;;;9.67;96.11
64200;BME280;50516;52.272;5.136;2023-02-21T00:02:58;102006.50;;;9.65;96.82
64200;BME280;50516;52.272;5.136;2023-02-21T00:05:42;102002.69;;;9.66;96.61
64200;BME280;50516;52.272;5.136;2023-02-21T00:08:26;102006.13;;;9.62;96.81
64200;BME280;50516;52.272;5.136;2023-02-21T00:11:10;102014.47;;;9.55;97.07
64200;BME280;50516;52.272;5.136;2023-02-21T00:13:54;102016.97;;;9.57;96.92
64200;BME280;50516;52.272;5.136;2023-02-21T00:16:38;102019.50;;;9.58;96.73
64200;BME280;50516;52.272;5.136;2023-02-21T00:19:22;102020.81;;;9.67;96.66
64200;BME280;50516;52.272;5.136;2023-02-21T00:22:06;102013.19;;;9.69;96.47
64200;BME280;50516;52.272;5.136;2023-02-21T00:24:50;102020.47;;;9.76;96.16
64200;BME280;50516;52.272;5.136;2023-02-21T00:27:34;102026.78;;;9.76;96.24
64200;BME280;50516;52.272;5.136;2023-02-21T00:30:18;102024.75;;;9.72;96.06
64200;BME280;50516;52.272;5.136;2023-02-21T00:33:02;102022.97;;;9.77;96.24
64200;BME280;50516;52.272;5.136;2023-02-21T00:35:45;102024.84;;;9.77;96.20
64200;BME280;50516;52.272;5.136;2023-02-21T00:38:29;102017.97;;;9.74;96.49
64200;BME280;50516;52.272;5.136;2023-02-21T00:41:13;102017.22;;;9.67;96.44
64200;BME280;50516;52.272;5.136;2023-02-21T00:43:57;102017.94;;;9.62;96.70
64200;BME280;50516;52.272;5.136;2023-02-21T00:46:41;102016.97;;;9.57;96.86
64200;BME280;50516;52.272;5.136;2023-02-21T00:49:25;102009.47;;;9.52;96.77
64200;BME280;50516;52.272;5.136;2023-02-21T00:52:09;102008.59;;;9.40;97.72
64200;BME280;50516;52.272;5.136;2023-02-21T00:54:53;102005.53;;;9.48;97.77
64200;BME280;50516;52.272;5.136;2023-02-21T00:57:37;102004.91;;;9.46;97.63
64200;BME280;50516;52.272;5.136;2023-02-21T01:00:22;102002.41;;;9.44;97.62
64200;BME280;50516;52.272;5.136;2023-02-21T01:03:07;102002.19;;;9.46;97.68
64200;BME280;50516;52.272;5.136;2023-02-21T01:05:52;101996.81;;;9.51;97.68
64200;BME280;50516;52.272;5.136;2023-02-21T01:08:40;101996.81;;;9.51;97.52
64200;BME280;50516;52.272;5.136;2023-02-21T01:11:25;101998.25;;;9.54;97.50
64200;BME280;50516;52.272;5.136;2023-02-21T01:14:09;102000.31;;;9.58;97.28
64200;BME280;50516;52.272;5.136;2023-02-21T01:16:53;101994.47;;;9.55;97.12
64200;BME280;50516;52.272;5.136;2023-02-21T01:19:37;101987.28;;;9.65;97.35
64200;BME280;50516;52.272;5.136;2023-02-21T01:22:21;101986.00;;;9.56;97.34
64200;BME280;50516;52.272;5.136;2023-02-21T01:25:05;101985.75;;;9.58;97.37
64200;BME280;50516;52.272;5.136;2023-02-21T01:27:49;101990.97;;;9.47;97.78
64200;BME280;50516;52.272;5.136;2023-02-21T01:30:33;101982.53;;;9.49;97.89
64200;BME280;50516;52.272;5.136;2023-02-21T01:33:17;101979.06;;;9.54;97.86
64200;BME280;50516;52.272;5.136;2023-02-21T01:36:04;101974.31;;;9.61;97.53
64200;BME280;50516;52.272;5.136;2023-02-21T01:38:48;101986.13;;;9.61;97.34
64200;BME280;50516;52.272;5.136;2023-02-21T01:41:33;101974.66;;;9.53;97.85
64200;BME280;50516;52.272;5.136;2023-02-21T01:44:36;101983.25;;;9.56;97.96
64200;BME280;50516;52.272;5.136;2023-02-21T01:47:21;101979.44;;;9.57;97.88
64200;BME280;50516;52.272;5.136;2023-02-21T01:50:12;101981.47;;;9.62;97.72
64200;BME280;50516;52.272;5.136;2023-02-21T01:52:57;101977.75;;;9.68;97.41
64200;BME280;50516;52.272;5.136;2023-02-21T01:55:42;101971.31;;;9.62;97.83
64200;BME280;50516;52.272;5.136;2023-02-21T01:58:28;101976.69;;;9.69;97.33
64200;BME280;50516;52.272;5.136;2023-02-21T02:01:24;101968.13;;;9.77;96.83
64200;BME280;50516;52.272;5.136;2023-02-21T02:04:10;101960.72;;;9.66;97.20
64200;BME280;50516;52.272;5.136;2023-02-21T02:06:54;101963.47;;;9.66;97.60
64200;BME280;50516;52.272;5.136;2023-02-21T02:09:38;101974.69;;;9.64;97.66
64200;BME280;50516;52.272;5.136;2023-02-21T02:36:41;101942.72;;;9.82;96.91
64200;BME280;50516;52.272;5.136;2023-02-21T02:44:59;101946.41;;;9.76;97.34
64200;BME280;50516;52.272;5.136;2023-02-21T02:47:49;101948.44;;;9.68;97.87
64200;BME280;50516;52.272;5.136;2023-02-21T02:50:19;101958.22;;;9.64;98.05
64200;BME280;50516;52.272;5.136;2023-02-21T02:52:52;101946.53;;;9.69;98.21
64200;BME280;50516;52.272;5.136;2023-02-21T02:55:39;101941.50;;;9.78;97.69
64200;BME280;50516;52.272;5.136;2023-02-21T02:58:07;101945.81;;;9.85;97.70
64200;BME280;50516;52.272;5.136;2023-02-21T03:00:35;101946.25;;;9.94;96.68
64200;BME280;50516;52.272;5.136;2023-02-21T03:03:28;101944.38;;;9.83;97.22
64200;BME280;50516;52.272;5.136;2023-02-21T03:06:18;101955.56;;;9.81;97.15
64200;BME280;50516;52.272;5.136;2023-02-21T03:09:08;101956.53;;;9.87;97.47
64200;BME280;50516;52.272;5.136;2023-02-21T03:11:42;101950.09;;;9.81;97.22
64200;BME280;50516;52.272;5.136;2023-02-21T03:14:15;101945.22;;;9.83;97.85
64200;BME280;50516;52.272;5.136;2023-02-21T03:16:47;101938.75;;;9.78;97.26
64200;BME280;50516;52.272;5.136;2023-02-21T03:19:22;101938.78;;;9.66;98.37
64200;BME280;50516;52.272;5.136;2023-02-21T03:22:02;101946.41;;;9.64;97.98
64200;BME280;50516;52.272;5.136;2023-02-21T03:24:30;101957.28;;;9.71;98.15
64200;BME280;50516;52.272;5.136;2023-02-21T03:27:01;101940.81;;;9.71;98.01
64200;BME280;50516;52.272;5.136;2023-02-21T03:29:28;101939.34;;;9.80;97.83
64200;BME280;50516;52.272;5.136;2023-02-21T03:31:57;101936.72;;;9.85;97.53
64200;BME280;50516;52.272;5.136;2023-02-21T03:34:35;101936.38;;;9.81;97.66
64200;BME280;50516;52.272;5.136;2023-02-21T03:37:00;101936.97;;;9.95;96.74
64200;BME280;50516;52.272;5.136;2023-02-21T03:39:26;101941.63;;;9.95;97.23
64200;BME280;50516;52.272;5.136;2023-02-21T03:41:51;101940.88;;;9.99;96.93
64200;BME280;50516;52.272;5.136;2023-02-21T03:44:16;101939.47;;;9.97;96.31
64200;BME280;50516;52.272;5.136;2023-02-21T03:46:42;101935.28;;;9.94;97.09
64200;BME280;50516;52.272;5.136;2023-02-21T03:49:08;101941.25;;;9.91;97.13
64200;BME280;50516;52.272;5.136;2023-02-21T03:51:33;101926.81;;;9.96;97.06
64200;BME280;50516;52.272;5.136;2023-02-21T03:53:58;101926.22;;;9.94;96.78
64200;BME280;50516;52.272;5.136;2023-02-21T03:56:24;101928.72;;;9.95;96.96
64200;BME280;50516;52.272;5.136;2023-02-21T03:58:49;101931.94;;;9.92;96.97
64200;BME280;50516;52.272;5.136;2023-02-21T04:01:14;101924.31;;;9.94;96.66
64200;BME280;50516;52.272;5.136;2023-02-21T04:03:40;101931.81;;;9.99;96.92
64200;BME280;50516;52.272;5.136;2023-02-21T04:06:05;101930.88;;;9.93;97.04
64200;BME280;50516;52.272;5.136;2023-02-21T04:08:31;101926.47;;;9.92;97.20
64200;BME280;50516;52.272;5.136;2023-02-21T04:10:56;101926.59;;;9.85;97.29
64200;BME280;50516;52.272;5.136;2023-02-21T04:13:21;101927.44;;;9.86;97.65
64200;BME280;50516;52.272;5.136;2023-02-21T04:15:48;101925.06;;;9.78;97.77
64200;BME280;50516;52.272;5.136;2023-02-21T04:18:13;101922.56;;;9.76;98.07
64200;BME280;50516;52.272;5.136;2023-02-21T04:20:39;101922.09;;;9.67;98.04
64200;BME280;50516;52.272;5.136;2023-02-21T04:23:04;101923.97;;;9.67;98.28
64200;BME280;50516;52.272;5.136;2023-02-21T04:25:30;101917.78;;;9.83;98.07
64200;BME280;50516;52.272;5.136;2023-02-21T04:27:55;101915.16;;;9.89;97.46
64200;BME280;50516;52.272;5.136;2023-02-21T04:30:20;101922.75;;;9.98;97.10
64200;BME280;50516;52.272;5.136;2023-02-21T04:32:46;101924.31;;;9.94;96.81
64200;BME280;50516;52.272;5.136;2023-02-21T04:35:11;101929.47;;;9.79;97.47
64200;BME280;50516;52.272;5.136;2023-02-21T04:37:37;101933.50;;;9.88;97.18
64200;BME280;50516;52.272;5.136;2023-02-21T04:40:02;101923.63;;;9.87;97.57
64200;BME280;50516;52.272;5.136;2023-02-21T04:42:27;101923.38;;;9.89;97.41
64200;BME280;50516;52.272;5.136;2023-02-21T04:44:53;101926.25;;;9.82;97.60
64200;BME280;50516;52.272;5.136;2023-02-21T04:47:18;101932.44;;;9.89;97.36
64200;BME280;50516;52.272;5.136;2023-02-21T04:49:44;101925.50;;;9.98;96.99
64200;BME280;50516;52.272;5.136;2023-02-21T04:52:15;101930.28;;;10.03;96.66
64200;BME280;50516;52.272;5.136;2023-02-21T04:54:41;101931.56;;;10.00;96.78
64200;BME280;50516;52.272;5.136;2023-02-21T04:57:06;101936.81;;;10.02;96.89
64200;BME280;50516;52.272;5.136;2023-02-21T04:59:31;101929.00;;;9.82;97.55
64200;BME280;50516;52.272;5.136;2023-02-21T05:01:57;101915.97;;;9.89;97.29
64200;BME280;50516;52.272;5.136;2023-02-21T05:04:23;101919.41;;;9.96;96.92
64200;BME280;50516;52.272;5.136;2023-02-21T05:06:48;101922.53;;;10.00;96.95
64200;BME280;50516;52.272;5.136;2023-02-21T05:09:14;101919.06;;;10.04;96.64
64200;BME280;50516;52.272;5.136;2023-02-21T05:11:39;101927.16;;;9.99;96.89
64200;BME280;50516;52.272;5.136;2023-02-21T05:14:05;101938.97;;;10.00;96.90
64200;BME280;50516;52.272;5.136;2023-02-21T05:16:30;101930.03;;;10.04;96.57
64200;BME280;50516;52.272;5.136;2023-02-21T05:18:56;101916.66;;;9.96;96.72
64200;BME280;50516;52.272;5.136;2023-02-21T05:21:21;101913.81;;;9.91;97.00
64200;BME280;50516;52.272;5.136;2023-02-21T05:23:46;101917.88;;;9.89;97.23
64200;BME280;50516;52.272;5.136;2023-02-21T05:26:21;101922.16;;;9.96;96.82
64200;BME280;50516;52.272;5.136;2023-02-21T05:28:47;101939.91;;;10.05;96.74
64200;BME280;50516;52.272;5.136;2023-02-21T05:31:12;101934.31;;;10.00;96.37
64200;BME280;50516;52.272;5.136;2023-02-21T05:33:38;101940.75;;;10.06;96.38
64200;BME280;50516;52.272;5.136;2023-02-21T05:36:03;101938.38;;;10.10;96.36
64200;BME280;50516;52.272;5.136;2023-02-21T05:38:29;101932.78;;;10.04;96.32
64200;BME280;50516;52.272;5.136;2023-02-21T05:40:54;101931.13;;;9.92;97.09
64200;BME280;50516;52.272;5.136;2023-02-21T05:43:19;101932.16;;;10.02;96.61
64200;BME280;50516;52.272;5.136;2023-02-21T05:45:45;101927.78;;;9.90;96.39
64200;BME280;50516;52.272;5.136;2023-02-21T05:48:10;101931.75;;;9.82;97.27
64200;BME280;50516;52.272;5.136;2023-02-21T05:50:36;101935.19;;;9.89;97.33
64200;BME280;50516;52.272;5.136;2023-02-21T05:53:03;101937.44;;;9.92;96.85
64200;BME280;50516;52.272;5.136;2023-02-21T05:55:29;101938.03;;;9.94;96.89
64200;BME280;50516;52.272;5.136;2023-02-21T05:57:54;101940.88;;;9.99;96.40
64200;BME280;50516;52.272;5.136;2023-02-21T06:00:22;101942.91;;;10.04;96.26
64200;BME280;50516;52.272;5.136;2023-02-21T06:02:49;101944.47;;;9.88;96.74
64200;BME280;50516;52.272;5.136;2023-02-21T06:05:16;101947.94;;;9.95;96.46
64200;BME280;50516;52.272;5.136;2023-02-21T06:07:41;101946.97;;;10.01;96.44
64200;BME280;50516;52.272;5.136;2023-02-21T06:10:07;101945.88;;;10.02;96.22
64200;BME280;50516;52.272;5.136;2023-02-21T06:12:32;101940.91;;;9.87;96.84
64200;BME280;50516;52.272;5.136;2023-02-21T06:14:58;101943.13;;;10.02;96.28
64200;BME280;50516;52.272;5.136;2023-02-21T06:17:23;101936.97;;;9.95;96.58
64200;BME280;50516;52.272;5.136;2023-02-21T06:19:48;101936.25;;;9.88;96.83
64200;BME280;50516;52.272;5.136;2023-02-21T06:22:14;101940.56;;;9.84;96.84
64200;BME280;50516;52.272;5.136;2023-02-21T06:24:39;101932.66;;;9.87;96.96
64200;BME280;50516;52.272;5.136;2023-02-21T06:27:04;101940.03;;;9.99;96.76
64200;BME280;50516;52.272;5.136;2023-02-21T06:29:30;101948.25;;;10.11;96.32
64200;BME280;50516;52.272;5.136;2023-02-21T06:31:59;101947.91;;;10.07;95.93
64200;BME280;50516;52.272;5.136;2023-02-21T06:34:26;101946.59;;;9.98;96.49
64200;BME280;50516;52.272;5.136;2023-02-21T06:36:53;101946.13;;;10.01;96.51
64200;BME280;50516;52.272;5.136;2023-02-21T06:39:18;101942.31;;;10.02;96.23
64200;BME280;50516;52.272;5.136;2023-02-21T06:41:43;101946.97;;;10.01;96.46
64200;BME280;50516;52.272;5.136;2023-02-21T06:44:10;101947.94;;;9.95;96.43
64200;BME280;50516;52.272;5.136;2023-02-21T06:46:36;101953.38;;;10.07;96.00
64200;BME280;50516;52.272;5.136;2023-02-21T06:49:03;101948.88;;;10.13;95.77
64200;BME280;50516;52.272;5.136;2023-02-21T06:51:41;101958.97;;;10.12;95.72
64200;BME280;50516;52.272;5.136;2023-02-21T06:54:07;101954.47;;;9.94;96.25
64200;BME280;50516;52.272;5.136;2023-02-21T06:56:33;101948.75;;;9.96;96.33
64200;BME280;50516;52.272;5.136;2023-02-21T06:58:58;101953.75;;;9.99;96.36
64200;BME280;50516;52.272;5.136;2023-02-21T07:01:25;101957.09;;;10.01;96.31
64200;BME280;50516;52.272;5.136;2023-02-21T07:03:52;101962.97;;;10.04;96.21
64200;BME280;50516;52.272;5.136;2023-02-21T07:06:18;101956.28;;;10.00;96.11
64200;BME280;50516;52.272;5.136;2023-02-21T07:08:43;101964.16;;;9.97;96.46
64200;BME280;50516;52.272;5.136;2023-02-21T07:11:09;101954.09;;;10.02;96.29
64200;BME280;50516;52.272;5.136;2023-02-21T07:13:35;101948.53;;;9.97;96.50
64200;BME280;50516;52.272;5.136;2023-02-21T07:16:00;101952.94;;;9.98;96.70
64200;BME280;50516;52.272;5.136;2023-02-21T07:18:26;101951.84;;;9.99;96.82
64200;BME280;50516;52.272;5.136;2023-02-21T07:20:51;101948.03;;;10.00;96.25
64200;BME280;50516;52.272;5.136;2023-02-21T07:23:17;101950.31;;;10.03;96.38
64200;BME280;50516;52.272;5.136;2023-02-21T07:25:42;101944.81;;;10.03;96.65
64200;BME280;50516;52.272;5.136;2023-02-21T07:28:08;101952.09;;;10.10;96.47
64200;BME280;50516;52.272;5.136;2023-02-21T07:30:33;101945.03;;;10.14;95.91
64200;BME280;50516;52.272;5.136;2023-02-21T07:32:59;101944.19;;;10.13;96.16
64200;BME280;50516;52.272;5.136;2023-02-21T07:35:25;101944.53;;;10.17;95.77
64200;BME280;50516;52.272;5.136;2023-02-21T07:37:50;101951.38;;;10.14;95.94
64200;BME280;50516;52.272;5.136;2023-02-21T07:40:16;101950.16;;;10.10;96.04
64200;BME280;50516;52.272;5.136;2023-02-21T07:42:42;101948.50;;;10.09;96.33
64200;BME280;50516;52.272;5.136;2023-02-21T07:45:11;101951.00;;;10.11;96.05
64200;BME280;50516;52.272;5.136;2023-02-21T07:47:36;101952.91;;;10.10;96.11
64200;BME280;50516;52.272;5.136;2023-02-21T07:50:02;101956.47;;;10.11;96.09
64200;BME280;50516;52.272;5.136;2023-02-21T07:52:28;101963.84;;;10.22;95.59
64200;BME280;50516;52.272;5.136;2023-02-21T07:54:53;101963.03;;;10.21;95.59
64200;BME280;50516;52.272;5.136;2023-02-21T07:57:19;101962.31;;;10.26;95.59
64200;BME280;50516;52.272;5.136;2023-02-21T07:59:46;101961.25;;;10.27;95.88
64200;BME280;50516;52.272;5.136;2023-02-21T08:02:11;101963.84;;;10.22;95.59
64200;BME280;50516;52.272;5.136;2023-02-21T08:04:37;101963.59;;;10.23;95.68
64200;BME280;50516;52.272;5.136;2023-02-21T08:07:03;101961.34;;;10.20;95.98
64200;BME280;50516;52.272;5.136;2023-02-21T08:09:29;101961.72;;;10.24;95.81
64200;BME280;50516;52.272;5.136;2023-02-21T08:11:54;101957.06;;;10.24;95.33
64200;BME280;50516;52.272;5.136;2023-02-21T08:14:20;101973.63;;;10.30;95.60
64200;BME280;50516;52.272;5.136;2023-02-21T08:16:45;101963.97;;;10.27;95.22
64200;BME280;50516;52.272;5.136;2023-02-21T08:19:10;101960.03;;;10.23;95.45
64200;BME280;50516;52.272;5.136;2023-02-21T08:21:36;101964.09;;;10.20;95.71
64200;BME280;50516;52.272;5.136;2023-02-21T08:24:01;101963.38;;;10.25;95.65
64200;BME280;50516;52.272;5.136;2023-02-21T08:26:27;101964.22;;;10.26;95.50
64200;BME280;50516;52.272;5.136;2023-02-21T08:28:52;101969.59;;;10.32;95.21
64200;BME280;50516;52.272;5.136;2023-02-21T08:31:18;101962.88;;;10.28;95.35
64200;BME280;50516;52.272;5.136;2023-02-21T08:33:44;101965.38;;;10.30;95.67
64200;BME280;50516;52.272;5.136;2023-02-21T08:36:09;101955.88;;;10.32;95.14
64200;BME280;50516;52.272;5.136;2023-02-21T08:38:35;101960.38;;;10.27;95.63
64200;BME280;50516;52.272;5.136;2023-02-21T08:41:00;101963.38;;;10.37;95.61
64200;BME280;50516;52.272;5.136;2023-02-21T08:43:27;101968.97;;;10.42;95.27
64200;BME280;50516;52.272;5.136;2023-02-21T08:45:53;101951.03;;;10.51;94.85
64200;BME280;50516;52.272;5.136;2023-02-21T08:48:18;101957.34;;;10.52;94.67
64200;BME280;50516;52.272;5.136;2023-02-21T08:50:44;101950.44;;;10.49;94.44
64200;BME280;50516;52.272;5.136;2023-02-21T08:53:12;101956.66;;;10.45;94.73
64200;BME280;50516;52.272;5.136;2023-02-21T08:55:38;101954.38;;;10.53;94.65
64200;BME280;50516;52.272;5.136;2023-02-21T08:58:03;101958.19;;;10.52;94.77
64200;BME280;50516;52.272;5.136;2023-02-21T09:00:28;101948.53;;;10.50;94.65
64200;BME280;50516;52.272;5.136;2023-02-21T09:02:55;101951.38;;;10.55;94.65
64200;BME280;50516;52.272;5.136;2023-02-21T09:05:26;101948.72;;;10.60;94.61
64200;BME280;50516;52.272;5.136;2023-02-21T09:07:53;101955.41;;;10.64;94.46
64200;BME280;50516;52.272;5.136;2023-02-21T09:10:30;101949.69;;;10.54;93.97
64200;BME280;50516;52.272;5.136;2023-02-21T09:12:58;101946.56;;;10.62;94.70
64200;BME280;50516;52.272;5.136;2023-02-21T09:15:23;101946.91;;;10.66;94.39
64200;BME280;50516;52.272;5.136;2023-02-21T09:17:49;101946.31;;;10.64;94.46
64200;BME280;50516;52.272;5.136;2023-02-21T09:20:18;101950.50;;;10.66;94.42
64200;BME280;50516;52.272;5.136;2023-02-21T09:22:45;101945.59;;;10.68;94.31
64200;BME280;50516;52.272;5.136;2023-02-21T09:25:13;101943.00;;;10.78;94.30
64200;BME280;50516;52.272;5.136;2023-02-21T09:27:39;101932.88;;;10.96;93.48
64200;BME280;50516;52.272;5.136;2023-02-21T09:30:08;101939.00;;;10.98;92.98
64200;BME280;50516;52.272;5.136;2023-02-21T09:32:34;101937.72;;;10.89;93.39
64200;BME280;50516;52.272;5.136;2023-02-21T09:35:01;101925.22;;;10.81;93.80
64200;BME280;50516;52.272;5.136;2023-02-21T09:37:26;101932.97;;;10.84;93.79
64200;BME280;50516;52.272;5.136;2023-02-21T09:39:52;101921.81;;;10.91;93.58
64200;BME280;50516;52.272;5.136;2023-02-21T09:42:18;101927.56;;;10.89;93.92
64200;BME280;50516;52.272;5.136;2023-02-21T09:44:46;101930.63;;;10.93;93.30
64200;BME280;50516;52.272;5.136;2023-02-21T09:47:24;101921.31;;;10.94;93.48
64200;BME280;50516;52.272;5.136;2023-02-21T09:49:57;101915.50;;;11.07;93.10
64200;BME280;50516;52.272;5.136;2023-02-21T09:52:41;101914.66;;;11.07;93.32
64200;BME280;50516;52.272;5.136;2023-02-21T09:55:14;101919.66;;;11.10;92.77
64200;BME280;50516;52.272;5.136;2023-02-21T09:57:46;101912.81;;;11.12;92.86
64200;BME280;50516;52.272;5.136;2023-02-21T10:00:20;101924.22;;;11.04;92.65
64200;BME280;50516;52.272;5.136;2023-02-21T10:05:47;101916.34;;;11.08;93.09
64200;BME280;50516;52.272;5.136;2023-02-21T10:08:49;101913.84;;;11.06;93.22
64200;BME280;50516;52.272;5.136;2023-02-21T10:11:43;101912.31;;;11.15;92.66
64200;BME280;50516;52.272;5.136;2023-02-21T10:17:14;101913.81;;;11.23;92.62
64200;BME280;50516;52.272;5.136;2023-02-21T10:19:42;101914.31;;;11.20;92.43
64200;BME280;50516;52.272;5.136;2023-02-21T10:22:29;101914.31;;;11.20;92.43
64200;BME280;50516;52.272;5.136;2023-02-21T10:24:56;101910.06;;;11.12;92.29
64200;BME280;50516;52.272;5.136;2023-02-21T10:27:25;101918.84;;;11.09;92.49
64200;BME280;50516;52.272;5.136;2023-02-21T10:30:07;101921.84;;;11.08;93.01
64200;BME280;50516;52.272;5.136;2023-02-21T10:32:35;101915.00;;;11.10;92.86
64200;BME280;50516;52.272;5.136;2023-02-21T10:35:00;101923.81;;;11.12;92.62
64200;BME280;50516;52.272;5.136;2023-02-21T10:37:55;101921.81;;;11.25;92.07
64200;BME280;50516;52.272;5.136;2023-02-21T10:42:58;101914.66;;;11.24;92.30
64200;BME280;50516;52.272;5.136;2023-02-21T10:46:14;101913.41;;;11.31;92.32
64200;BME280;50516;52.272;5.136;2023-02-21T10:48:20;101920.50;;;11.27;92.15
64200;BME280;50516;52.272;5.136;2023-02-21T10:51:04;101920.66;;;11.38;92.13
64200;BME280;50516;52.272;5.136;2023-02-21T10:53:33;101921.47;;;11.38;91.96
64200;BME280;50516;52.272;5.136;2023-02-21T10:56:19;101925.31;;;11.37;91.91
64200;BME280;50516;52.272;5.136;2023-02-21T10:59:05;101920.09;;;11.36;92.24
64200;BME280;50516;52.272;5.136;2023-02-21T11:01:40;101914.41;;;11.25;92.35
64200;BME280;50516;52.272;5.136;2023-02-21T11:14:40;101919.84;;;11.37;91.97
64200;BME280;50516;52.272;5.136;2023-02-21T11:22:17;101914.66;;;11.41;91.86
64200;BME280;50516;52.272;5.136;2023-02-21T11:27:37;101909.16;;;11.41;91.96
64200;BME280;50516;52.272;5.136;2023-02-21T11:30:10;101917.66;;;11.39;91.98
64200;BME280;50516;52.272;5.136;2023-02-21T11:32:39;101914.41;;;11.42;91.93
64200;BME280;50516;52.272;5.136;2023-02-21T11:37:57;101903.16;;;11.44;92.10
64200;BME280;50516;52.272;5.136;2023-02-21T11:40:24;101898.22;;;11.46;91.91
64200;BME280;50516;52.272;5.136;2023-02-21T11:42:50;101896.72;;;11.38;92.00
64200;BME280;50516;52.272;5.136;2023-02-21T11:45:20;101895.00;;;11.32;92.30
64200;BME280;50516;52.272;5.136;2023-02-21T11:47:56;101895.41;;;11.41;92.33
64200;BME280;50516;52.272;5.136;2023-02-21T11:50:29;101904.28;;;11.48;91.76
64200;BME280;50516;52.272;5.136;2023-02-21T11:53:23;101895.28;;;11.52;91.60
64200;BME280;50516;52.272;5.136;2023-02-21T11:58:33;101898.28;;;11.51;91.70
64200;BME280;50516;52.272;5.136;2023-02-21T12:01:12;101894.97;;;11.49;91.70
64200;BME280;50516;52.272;5.136;2023-02-21T12:06:21;101893.47;;;11.41;91.92
64200;BME280;50516;52.272;5.136;2023-02-21T12:38:19;101874.75;;;11.04;94.08
64200;BME280;50516;52.272;5.136;2023-02-21T12:49:23;101867.88;;;11.02;95.05
64200;BME280;50516;52.272;5.136;2023-02-21T12:57:23;101856.19;;;11.11;95.27
64200;BME280;50516;52.272;5.136;2023-02-21T13:00:17;101853.63;;;11.05;95.04
64200;BME280;50516;52.272;5.136;2023-02-21T13:03:00;101857.69;;;11.02;95.39
64200;BME280;50516;52.272;5.136;2023-02-21T13:07:59;101852.94;;;11.14;94.99
64200;BME280;50516;52.272;5.136;2023-02-21T13:10:35;101858.88;;;11.06;95.28
64200;BME280;50516;52.272;5.136;2023-02-21T13:13:12;101853.94;;;11.08;95.28
64200;BME280;50516;52.272;5.136;2023-02-21T13:15:40;101852.28;;;11.07;95.24
64200;BME280;50516;52.272;5.136;2023-02-21T13:18:17;101852.53;;;11.06;95.71
64200;BME280;50516;52.272;5.136;2023-02-21T13:20:48;101849.53;;;11.07;95.36
64200;BME280;50516;52.272;5.136;2023-02-21T13:23:17;101846.22;;;11.05;95.64
64200;BME280;50516;52.272;5.136;2023-02-21T13:28:18;101844.28;;;11.06;95.38
64200;BME280;50516;52.272;5.136;2023-02-21T13:30:56;101841.03;;;11.09;95.36
64200;BME280;50516;52.272;5.136;2023-02-21T13:33:28;101835.28;;;11.10;95.36
64200;BME280;50516;52.272;5.136;2023-02-21T13:36:00;101828.72;;;11.11;95.17
64200;BME280;50516;52.272;5.136;2023-02-21T13:38:31;101827.53;;;11.07;95.42
64200;BME280;50516;52.272;5.136;2023-02-21T13:41:09;101821.88;;;11.14;95.08
64200;BME280;50516;52.272;5.136;2023-02-21T13:43:36;101819.72;;;11.16;94.87
64200;BME280;50516;52.272;5.136;2023-02-21T13:51:51;101823.53;;;11.32;94.40
64200;BME280;50516;52.272;5.136;2023-02-21T13:54:22;101819.91;;;11.31;94.42
64200;BME280;50516;52.272;5.136;2023-02-21T13:56:49;101823.19;;;11.28;94.47
64200;BME280;50516;52.272;5.136;2023-02-21T14:01:48;101810.38;;;11.17;94.75
64200;BME280;50516;52.272;5.136;2023-02-21T14:05:06;101811.84;;;11.25;94.72
64200;BME280;50516;52.272;5.136;2023-02-21T14:08:02;101813.53;;;11.26;94.43
64200;BME280;50516;52.272;5.136;2023-02-21T14:10:40;101811.59;;;11.26;94.34
64200;BME280;50516;52.272;5.136;2023-02-21T14:15:45;101813.03;;;11.29;94.49
64200;BME280;50516;52.272;5.136;2023-02-21T14:21:05;101810.84;;;11.31;94.38
64200;BME280;50516;52.272;5.136;2023-02-21T14:23:40;101807.59;;;11.34;93.93
64200;BME280;50516;52.272;5.136;2023-02-21T14:29:12;101804.66;;;11.41;93.89
64200;BME280;50516;52.272;5.136;2023-02-21T14:37:12;101803.16;;;11.33;93.81
64200;BME280;50516;52.272;5.136;2023-02-21T14:39:43;101800.41;;;11.33;93.70
64200;BME280;50516;52.272;5.136;2023-02-21T14:45:08;101803.16;;;11.33;93.50
64200;BME280;50516;52.272;5.136;2023-02-21T14:53:45;101802.34;;;11.32;93.50
64200;BME280;50516;52.272;5.136;2023-02-21T15:02:06;101796.56;;;11.12;93.77
64200;BME280;50516;52.272;5.136;2023-02-21T15:04:47;101799.41;;;11.00;93.88
64200;BME280;50516;52.272;5.136;2023-02-21T15:07:44;101790.66;;;11.03;94.17
64200;BME280;50516;52.272;5.136;2023-02-21T15:10:20;101797.50;;;11.01;93.74
64200;BME280;50516;52.272;5.136;2023-02-21T15:12:56;101792.75;;;10.96;94.42
64200;BME280;50516;52.272;5.136;2023-02-21T15:15:40;101791.59;;;10.92;94.18
64200;BME280;50516;52.272;5.136;2023-02-21T15:18:09;101788.19;;;10.85;94.33
64200;BME280;50516;52.272;5.136;2023-02-21T15:20:37;101789.09;;;10.90;94.32
64200;BME280;50516;52.272;5.136;2023-02-21T15:23:12;101791.59;;;10.92;93.73
64200;BME280;50516;52.272;5.136;2023-02-21T15:25:40;101794.34;;;10.92;93.76
64200;BME280;50516;52.272;5.136;2023-02-21T15:28:18;101784.59;;;10.84;93.78
64200;BME280;50516;52.272;5.136;2023-02-21T15:31:04;101788.59;;;10.76;93.79
64200;BME280;50516;52.272;5.136;2023-02-21T15:33:35;101788.03;;;10.74;94.50
64200;BME280;50516;52.272;5.136;2023-02-21T15:36:04;101788.59;;;10.76;94.29
64200;BME280;50516;52.272;5.136;2023-02-21T15:43:52;101791.34;;;10.76;93.79
64200;BME280;50516;52.272;5.136;2023-02-21T15:46:23;101783.94;;;10.77;93.59
64200;BME280;50516;52.272;5.136;2023-02-21T15:48:50;101783.03;;;10.71;93.68
64200;BME280;50516;52.272;5.136;2023-02-21T15:51:17;101785.78;;;10.71;93.76
64200;BME280;50516;52.272;5.136;2023-02-21T15:54:06;101781.34;;;10.70;93.84
64200;BME280;50516;52.272;5.136;2023-02-21T15:56:32;101786.94;;;10.58;94.18